createdAt,value
2018-02-06T00:00:05.675Z,71.24
2018-02-06T00:02:33.230Z,71.90
2018-02-06T00:05:00.846Z,72.87
2018-02-06T00:07:28.394Z,72.28
2018-02-06T00:09:55.938Z,71.97
2018-02-06T00:12:23.546Z,72.34
2018-02-06T00:14:51.130Z,72.07
2018-02-06T00:17:18.694Z,71.21
2018-02-06T00:19:46.274Z,70.57
2018-02-06T00:22:15.033Z,71.46
2018-02-06T00:24:42.616Z,73.36
2018-02-06T00:27:10.357Z,72.23
2018-02-06T00:29:37.926Z,71.81
2018-02-06T00:32:05.479Z,71.98
2018-02-06T00:34:33.075Z,72.38
2018-02-06T00:37:00.640Z,72.61
2018-02-06T00:39:28.203Z,72.75
2018-02-06T00:41:55.788Z,71.86
2018-02-06T00:44:24.347Z,71.85
2018-02-06T00:46:51.898Z,72.70
2018-02-06T00:49:19.558Z,73.17
2018-02-06T00:51:47.104Z,73.74
2018-02-06T00:54:14.646Z,73.02
2018-02-06T00:56:42.248Z,74.00
2018-02-06T00:59:09.783Z,73.46
2018-02-06T01:01:37.326Z,73.14
2018-02-06T01:04:05.027Z,73.35
2018-02-06T01:06:32.596Z,73.48
2018-02-06T01:09:00.142Z,74.17
2018-02-06T01:11:27.745Z,74.24
2018-02-06T01:13:55.296Z,72.79
2018-02-06T01:16:22.845Z,72.96
2018-02-06T01:18:50.536Z,74.09
2018-02-06T01:21:18.123Z,74.03
2018-02-06T01:23:45.673Z,75.11
2018-02-06T01:26:13.542Z,74.88
2018-02-06T01:28:41.101Z,75.44
2018-02-06T01:31:08.653Z,75.27
2018-02-06T01:33:36.236Z,76.37
2018-02-06T01:36:03.791Z,76.00
2018-02-06T01:38:31.353Z,76.53
2018-02-06T01:40:58.940Z,76.89
2018-02-06T01:43:26.507Z,77.46
2018-02-06T01:45:54.064Z,77.54
2018-02-06T01:48:21.806Z,75.74
2018-02-06T01:50:49.321Z,76.32
2018-02-06T01:53:16.872Z,76.19
2018-02-06T01:55:44.430Z,76.51
2018-02-06T01:58:11.974Z,76.66
2018-02-06T02:00:39.625Z,76.73
2018-02-06T02:03:07.234Z,76.68
2018-02-06T02:05:34.776Z,75.76
2018-02-06T02:08:02.354Z,75.70
2018-02-06T02:10:29.928Z,76.51
2018-02-06T02:12:57.476Z,77.12
2018-02-06T02:15:25.063Z,76.89
2018-02-06T02:17:52.630Z,76.83
2018-02-06T02:20:20.186Z,76.31
2018-02-06T02:22:47.880Z,76.96
2018-02-06T02:25:15.435Z,77.07
2018-02-06T02:27:42.997Z,77.53
2018-02-06T02:30:10.737Z,78.04
2018-02-06T02:32:38.291Z,78.17
2018-02-06T02:35:05.842Z,78.89
2018-02-06T02:37:33.573Z,78.63
2018-02-06T02:40:01.120Z,77.20
2018-02-06T04:40:32.012Z,80.89
2018-02-06T04:42:59.711Z,79.92
2018-02-06T04:45:27.301Z,80.55
2018-02-06T04:47:54.889Z,81.19
2018-02-06T04:50:22.633Z,81.56
2018-02-06T04:52:50.191Z,81.54
2018-02-06T04:55:17.749Z,80.76
2018-02-06T04:57:45.385Z,80.04
2018-02-06T05:00:12.935Z,80.34
2018-02-06T05:02:40.522Z,79.86
2018-02-06T05:05:08.130Z,80.20
2018-02-06T05:07:35.691Z,80.18
2018-02-06T05:10:03.249Z,80.10
2018-02-06T05:12:31.038Z,79.45
2018-02-06T05:14:58.642Z,79.60
2018-02-06T05:17:26.174Z,78.72
2018-02-06T05:19:53.763Z,79.30
2018-02-06T05:22:21.322Z,79.83
2018-02-06T05:24:48.874Z,80.39
2018-02-06T05:27:16.450Z,79.84
2018-02-06T05:29:44.007Z,79.71
2018-02-06T05:32:11.584Z,79.69
2018-02-06T05:34:39.179Z,78.34
2018-02-06T05:37:06.735Z,79.06
2018-02-06T05:39:34.302Z,79.34
2018-02-06T05:42:01.987Z,78.64
2018-02-06T05:44:29.588Z,78.06
2018-02-06T05:46:57.130Z,77.74
2018-02-06T05:49:24.821Z,78.60
2018-02-06T05:51:52.373Z,80.27
2018-02-06T05:54:19.933Z,80.84
2018-02-06T05:56:47.481Z,80.97
2018-02-06T05:59:15.037Z,80.93
2018-02-06T06:01:42.769Z,81.21
2018-02-06T06:04:10.313Z,81.57
2018-02-06T06:06:37.888Z,81.23
2018-02-06T06:09:05.501Z,81.30
2018-02-06T06:11:33.052Z,80.72
2018-02-06T06:14:00.602Z,79.31
2018-02-06T06:16:28.578Z,79.77
2018-02-06T06:18:56.125Z,80.33
2018-02-06T06:21:23.699Z,80.49
2018-02-06T06:23:51.434Z,80.57
2018-02-06T06:26:19.018Z,79.91
2018-02-06T06:28:46.576Z,79.65
2018-02-06T06:31:14.424Z,79.65
2018-02-06T06:33:42.009Z,79.82
2018-02-06T06:36:09.558Z,77.94
2018-02-06T06:38:37.205Z,76.68
2018-02-06T06:41:04.769Z,76.04
2018-02-06T06:43:32.318Z,76.17
2018-02-06T06:46:00.201Z,74.75
2018-02-06T06:48:27.760Z,73.83
2018-02-06T06:50:55.319Z,72.82
2018-02-06T06:53:23.183Z,71.67
2018-02-06T06:55:50.734Z,69.79
2018-02-06T06:58:18.277Z,67.68
2018-02-06T07:00:45.851Z,66.30
2018-02-06T07:03:13.397Z,65.80
2018-02-06T07:05:40.941Z,65.31
2018-02-06T07:08:08.675Z,65.29
2018-02-06T07:10:36.226Z,64.72
2018-02-06T07:13:03.780Z,65.06
2018-02-06T07:15:31.534Z,66.57
2018-02-06T07:17:59.085Z,66.18
2018-02-06T07:20:26.657Z,67.39
2018-02-06T07:22:54.346Z,66.25
2018-02-06T07:25:21.905Z,66.02
2018-02-06T07:27:49.454Z,65.44
2018-02-06T07:30:17.204Z,65.67
2018-02-06T07:32:44.767Z,65.80
2018-02-06T07:35:12.327Z,65.05
2018-02-06T07:37:40.199Z,65.20
2018-02-06T07:40:07.759Z,64.28
2018-02-06T07:42:35.337Z,64.05
2018-02-06T07:45:03.131Z,65.65
2018-02-06T07:47:30.715Z,66.51
2018-02-06T07:49:58.281Z,66.60
2018-02-06T07:52:25.893Z,65.90
2018-02-06T07:54:53.480Z,66.32
2018-02-06T07:57:21.050Z,65.74
2018-02-06T07:59:48.620Z,64.84
2018-02-06T08:02:16.187Z,64.88
2018-02-06T08:04:43.743Z,64.81
2018-02-06T08:07:11.342Z,64.52
2018-02-06T08:09:38.898Z,64.74
2018-02-06T08:12:06.459Z,65.82
2018-02-06T08:14:34.042Z,65.65
2018-02-06T08:17:01.596Z,65.15
2018-02-06T08:19:29.164Z,65.51
2018-02-06T08:21:56.764Z,65.69
2018-02-06T08:24:24.320Z,64.40
2018-02-06T08:26:51.894Z,64.77
2018-02-06T08:29:19.495Z,64.52
2018-02-06T08:31:47.672Z,63.89
2018-02-06T08:34:15.223Z,64.89
2018-02-06T08:36:43.032Z,63.50
2018-02-06T08:39:10.555Z,63.53
2018-02-06T08:41:38.097Z,63.65
2018-02-06T08:44:06.451Z,62.94
2018-02-06T08:46:34.011Z,63.13
2018-02-06T08:49:01.569Z,63.11
2018-02-06T08:51:30.648Z,62.75
2018-02-06T08:53:58.220Z,62.69
2018-02-06T08:56:25.765Z,62.79
2018-02-06T08:58:53.338Z,63.24
2018-02-06T09:01:20.883Z,63.17
2018-02-06T09:03:48.421Z,62.94
2018-02-06T09:06:16.187Z,62.64
2018-02-06T09:08:43.756Z,62.84
2018-02-06T09:11:11.332Z,62.44
2018-02-06T09:13:39.031Z,61.52
2018-02-06T09:16:06.588Z,62.77
2018-02-06T09:18:34.166Z,62.98
2018-02-06T09:21:02.738Z,63.28
2018-02-06T09:23:30.286Z,62.67
2018-02-06T09:25:57.855Z,62.53
2018-02-06T09:28:25.446Z,62.56
2018-02-06T09:30:53.012Z,62.51
2018-02-06T09:33:20.592Z,62.51
2018-02-06T09:35:48.187Z,62.43
2018-02-06T09:38:15.738Z,63.28
2018-02-06T09:40:43.291Z,62.84
2018-02-06T09:43:10.874Z,62.88
2018-02-06T09:45:38.431Z,62.61
2018-02-06T09:48:05.987Z,62.83
2018-02-06T09:50:33.690Z,62.54
2018-02-06T09:53:01.231Z,62.35
2018-02-06T09:55:28.781Z,63.19
2018-02-06T09:57:58.152Z,63.11
2018-02-06T10:00:25.707Z,62.33
2018-02-06T10:02:54.165Z,62.55
2018-02-06T10:05:22.221Z,62.21
2018-02-06T10:07:49.768Z,61.55
2018-02-06T10:10:17.347Z,61.28
2018-02-06T10:12:45.047Z,61.62
2018-02-06T10:15:12.599Z,61.93
2018-02-06T10:17:40.155Z,60.47
2018-02-06T10:20:07.749Z,60.69
2018-02-06T10:22:35.302Z,60.15
2018-02-06T10:25:02.847Z,59.33
2018-02-06T10:27:30.425Z,59.58
2018-02-06T10:29:57.969Z,60.08
2018-02-06T10:32:25.508Z,60.67
2018-02-06T10:34:53.084Z,59.42
2018-02-06T10:37:20.637Z,59.67
2018-02-06T10:39:48.699Z,59.40
2018-02-06T10:42:16.472Z,58.65
2018-02-06T10:44:44.054Z,58.82
2018-02-06T10:47:11.608Z,59.73
2018-02-06T10:49:39.177Z,59.45
2018-02-06T10:52:06.723Z,59.05
2018-02-06T10:54:34.289Z,58.79
2018-02-06T10:57:02.179Z,58.07
2018-02-06T10:59:29.727Z,58.41
2018-02-06T11:01:57.416Z,58.67
2018-02-06T11:04:24.981Z,59.10
2018-02-06T11:06:52.531Z,57.80
2018-02-06T11:09:20.120Z,57.55
2018-02-06T11:11:47.668Z,58.59
2018-02-06T11:14:15.222Z,57.29
2018-02-06T11:16:42.816Z,57.55
2018-02-06T11:19:10.370Z,58.19
2018-02-06T11:21:37.933Z,58.73
2018-02-06T11:24:05.660Z,57.50
2018-02-06T11:26:33.226Z,57.28
2018-02-06T11:29:00.783Z,58.20
2018-02-06T11:31:28.364Z,58.53
2018-02-06T11:33:55.908Z,58.23
2018-02-06T11:36:23.457Z,56.29
2018-02-06T11:38:51.144Z,57.12
2018-02-06T11:41:18.698Z,57.22
2018-02-06T11:43:46.245Z,56.69
2018-02-06T11:46:13.995Z,57.20
2018-02-06T11:48:41.574Z,55.65
2018-02-06T11:51:09.131Z,56.48
2018-02-06T11:53:36.733Z,56.16
2018-02-06T11:56:04.278Z,55.93
2018-02-06T11:58:31.826Z,55.00
2018-02-06T12:00:59.555Z,55.50
2018-02-06T12:03:27.105Z,55.68
2018-02-06T12:05:54.647Z,56.37
2018-02-06T12:08:22.221Z,55.79
2018-02-06T12:10:52.783Z,55.81
2018-02-06T12:13:20.335Z,55.77
2018-02-06T12:15:48.017Z,54.79
2018-02-06T12:18:15.583Z,55.33
2018-02-06T12:20:43.148Z,54.61
2018-02-06T12:23:10.765Z,54.50
2018-02-06T12:25:38.310Z,55.28
2018-02-06T12:28:05.866Z,54.19
2018-02-06T12:30:33.609Z,54.65
2018-02-06T12:33:01.155Z,54.62
2018-02-06T12:35:28.702Z,54.08
2018-02-06T12:37:56.311Z,54.49
2018-02-06T12:40:23.866Z,54.79
2018-02-06T12:42:51.429Z,55.61
2018-02-06T12:45:19.001Z,55.34
2018-02-06T12:47:46.558Z,55.81
2018-02-06T12:50:14.120Z,55.81
2018-02-06T12:52:41.719Z,56.20
2018-02-06T12:55:09.263Z,55.73
2018-02-06T12:57:36.825Z,55.71
2018-02-06T13:00:04.568Z,55.64
2018-02-06T13:02:32.117Z,55.53
2018-02-06T13:04:59.657Z,54.93
2018-02-06T13:07:27.423Z,55.03
2018-02-06T13:09:54.977Z,55.79
2018-02-06T13:12:22.536Z,55.31
2018-02-06T13:14:50.234Z,55.01
2018-02-06T13:17:17.819Z,55.18
2018-02-06T13:19:45.370Z,55.37
2018-02-06T13:22:12.957Z,55.38
2018-02-06T13:24:40.502Z,55.36
2018-02-06T13:27:08.054Z,55.65
2018-02-06T13:29:35.650Z,55.20
2018-02-06T13:32:03.213Z,55.15
2018-02-06T13:34:31.391Z,56.03
2018-02-06T13:36:59.135Z,55.38
2018-02-06T13:39:28.814Z,55.58
2018-02-06T13:41:56.388Z,55.42
2018-02-06T13:44:24.485Z,55.30
2018-02-06T13:46:52.044Z,55.47
2018-02-06T13:49:19.602Z,55.69
2018-02-06T13:51:47.302Z,55.51
2018-02-06T13:54:14.845Z,55.63
2018-02-06T13:56:42.392Z,56.54
2018-02-06T13:59:09.978Z,56.11
2018-02-06T14:01:37.542Z,56.39
2018-02-06T14:04:05.126Z,56.27
2018-02-06T14:06:32.862Z,56.51
2018-02-06T14:09:00.413Z,56.22
2018-02-06T14:11:27.985Z,55.45
2018-02-06T14:13:55.569Z,55.05
2018-02-06T14:16:23.141Z,55.48
2018-02-06T14:18:50.731Z,56.48
2018-02-06T14:21:18.342Z,56.85
2018-02-06T14:23:45.895Z,57.14
2018-02-06T14:26:13.451Z,56.93
2018-02-06T14:28:41.141Z,57.54
2018-02-06T14:31:08.702Z,57.39
2018-02-06T14:33:36.325Z,57.51
2018-02-06T14:36:03.908Z,57.91
2018-02-06T14:38:31.490Z,58.06
2018-02-06T14:40:59.109Z,58.50
2018-02-06T14:43:26.711Z,58.84
2018-02-06T14:45:54.318Z,59.06
2018-02-06T14:48:21.888Z,59.28
2018-02-06T14:50:49.591Z,60.10
2018-02-06T14:53:17.168Z,60.55
2018-02-06T14:55:44.726Z,61.09
2018-02-06T14:58:12.317Z,60.97
2018-02-06T15:00:39.916Z,61.14
2018-02-06T15:03:07.480Z,60.84
2018-02-06T15:05:35.552Z,61.11
2018-02-06T15:08:03.118Z,60.86
2018-02-06T15:10:30.671Z,61.39
2018-02-06T15:12:58.248Z,62.99
2018-02-06T15:15:26.308Z,64.59
2018-02-06T15:17:53.871Z,65.72
2018-02-06T15:20:21.750Z,66.55
2018-02-06T15:22:49.325Z,67.03
2018-02-06T15:25:16.920Z,67.07
2018-02-06T15:27:44.485Z,67.53
2018-02-06T15:30:12.130Z,67.40
2018-02-06T15:32:39.694Z,68.06
2018-02-06T15:35:07.406Z,68.58
2018-02-06T15:37:34.964Z,68.76
2018-02-06T15:40:02.576Z,68.37
2018-02-06T15:42:30.315Z,69.11
2018-02-06T15:44:57.911Z,69.13
2018-02-06T15:47:25.492Z,69.41
2018-02-06T15:49:53.238Z,68.46
2018-02-06T15:52:20.798Z,69.06
2018-02-06T15:54:48.376Z,68.83
2018-02-06T15:57:15.957Z,69.42
2018-02-06T15:59:43.537Z,70.17
2018-02-06T16:02:11.182Z,70.65
2018-02-06T16:04:38.738Z,70.23
2018-02-06T16:07:06.295Z,70.11
2018-02-06T16:09:34.160Z,70.37
2018-02-06T16:12:01.789Z,70.02
2018-02-06T16:14:29.349Z,70.52
2018-02-06T16:16:57.064Z,71.35
2018-02-06T16:19:24.617Z,71.71
2018-02-06T16:21:52.185Z,71.85
2018-02-06T16:24:19.871Z,70.72
2018-02-06T16:26:47.425Z,71.35
2018-02-06T16:29:14.974Z,70.48
2018-02-06T16:31:42.707Z,71.12
2018-02-06T16:34:10.267Z,70.92
2018-02-06T16:36:37.836Z,71.16
2018-02-06T16:39:05.622Z,71.04
2018-02-06T16:41:33.177Z,71.20
2018-02-06T16:44:00.757Z,71.00
2018-02-06T16:46:28.704Z,70.04
2018-02-06T16:48:56.266Z,70.19
2018-02-06T16:51:23.851Z,69.04
2018-02-06T16:53:51.459Z,69.51
2018-02-06T16:56:19.036Z,69.59
2018-02-06T16:58:46.605Z,70.48
2018-02-06T17:01:14.242Z,70.72
2018-02-06T17:03:41.810Z,70.17
2018-02-06T17:06:09.360Z,70.05
2018-02-06T17:08:37.884Z,69.98
2018-02-06T17:11:05.463Z,70.10
2018-02-06T17:13:33.024Z,70.25
2018-02-06T17:16:00.766Z,69.69
2018-02-06T17:18:28.327Z,70.09
2018-02-06T17:20:56.016Z,69.81
2018-02-06T17:23:23.627Z,70.13
2018-02-06T17:25:51.217Z,71.41
2018-02-06T17:28:18.765Z,71.44
2018-02-06T17:30:46.530Z,70.73
2018-02-06T17:33:14.080Z,71.86
2018-02-06T17:35:41.650Z,73.43
2018-02-06T17:38:09.384Z,73.97
2018-02-06T17:40:36.959Z,73.57
2018-02-06T17:43:04.514Z,73.61
2018-02-06T17:45:32.526Z,74.31
2018-02-06T17:48:00.090Z,74.42
2018-02-06T17:50:27.638Z,74.03
2018-02-06T17:52:55.559Z,74.01
2018-02-06T17:55:23.129Z,73.34
2018-02-06T17:57:50.677Z,72.92
2018-02-06T18:00:18.419Z,72.82
2018-02-06T18:02:46.008Z,72.68
2018-02-06T18:05:13.578Z,73.58
2018-02-06T18:07:41.250Z,74.56
2018-02-06T18:10:08.920Z,75.27
2018-02-06T18:12:36.516Z,75.60
2018-02-06T18:15:04.344Z,76.28
2018-02-06T18:17:31.904Z,76.24
2018-02-06T18:19:59.472Z,75.76
2018-02-06T18:22:27.077Z,76.33
2018-02-06T18:24:54.626Z,76.59
2018-02-06T18:27:24.180Z,76.83
2018-02-06T18:29:52.066Z,75.89
2018-02-06T18:32:20.372Z,76.25
2018-02-06T18:34:47.929Z,76.76
2018-02-06T18:37:15.666Z,77.13
2018-02-06T18:39:43.277Z,77.45
2018-02-06T18:42:10.851Z,77.59
2018-02-06T18:44:38.444Z,77.15
2018-02-06T18:47:06.041Z,76.06
2018-02-06T18:49:34.964Z,76.09
2018-02-06T18:52:02.657Z,74.42
2018-02-06T18:54:30.244Z,73.59
2018-02-06T18:56:57.879Z,72.89
2018-02-06T18:59:26.154Z,71.76
2018-02-06T19:01:53.722Z,71.42
2018-02-06T19:04:22.065Z,71.78
2018-02-06T19:06:49.674Z,71.52
2018-02-06T19:09:17.254Z,71.25
2018-02-06T19:11:44.868Z,71.16
2018-02-06T19:14:12.516Z,71.42
2018-02-06T19:16:40.075Z,70.83
2018-02-06T19:19:07.690Z,71.21
2018-02-06T19:21:35.436Z,70.99
2018-02-06T19:24:03.013Z,70.54
2018-02-06T19:26:30.590Z,70.36
2018-02-06T19:28:58.492Z,72.82
2018-02-06T19:31:26.064Z,74.65
2018-02-06T19:33:53.645Z,75.41
2018-02-06T19:36:21.613Z,75.49
2018-02-06T19:38:49.220Z,76.13
2018-02-06T19:41:16.788Z,76.32
2018-02-06T19:43:44.439Z,76.41
2018-02-06T19:46:12.046Z,76.58
2018-02-06T19:48:39.632Z,76.32
2018-02-06T19:51:07.669Z,75.24
2018-02-06T19:53:35.245Z,74.98
2018-02-06T19:56:02.836Z,75.99
2018-02-06T19:58:30.568Z,75.57
2018-02-06T20:00:58.138Z,75.18
2018-02-06T20:03:25.766Z,74.99
2018-02-06T20:05:53.454Z,74.74
2018-02-06T20:08:21.016Z,74.59
2018-02-06T20:10:48.566Z,76.15
2018-02-06T20:13:16.166Z,76.49
2018-02-06T20:15:43.764Z,75.67
2018-02-06T20:18:13.282Z,76.07
2018-02-06T20:20:41.009Z,76.99
2018-02-06T20:23:08.612Z,77.38
2018-02-06T20:25:36.171Z,77.35
2018-02-06T20:28:03.841Z,77.28
2018-02-06T20:30:31.405Z,77.93
2018-02-06T20:32:58.987Z,77.95
2018-02-06T20:35:26.565Z,76.99
2018-02-06T20:37:54.128Z,77.22
2018-02-06T20:40:21.687Z,77.70
2018-02-06T20:42:49.404Z,78.14
2018-02-06T20:45:16.985Z,78.30
2018-02-06T20:47:45.158Z,78.44
2018-02-06T20:50:12.752Z,78.06
2018-02-06T20:52:40.504Z,78.98
2018-02-06T20:55:08.077Z,79.18
2018-02-06T20:57:35.636Z,79.33
2018-02-06T21:00:03.285Z,79.67
2018-02-06T21:02:31.043Z,79.66
2018-02-06T21:04:58.597Z,80.08
2018-02-06T21:07:26.171Z,79.52
2018-02-06T21:09:53.815Z,79.36
2018-02-06T21:12:21.391Z,79.46
2018-02-06T21:14:48.968Z,79.25
2018-02-06T21:17:16.656Z,79.42
2018-02-06T21:19:44.217Z,79.47
2018-02-06T21:22:11.794Z,79.12
2018-02-06T21:24:39.391Z,78.74
2018-02-06T21:27:06.955Z,78.70
2018-02-06T21:29:34.580Z,78.79
2018-02-06T21:32:02.317Z,79.74
2018-02-06T21:34:29.870Z,79.72
2018-02-06T21:36:57.421Z,78.52
2018-02-06T21:39:25.021Z,79.07
2018-02-06T21:41:53.551Z,77.71
2018-02-06T21:44:21.108Z,76.29
2018-02-06T21:46:48.858Z,76.50
2018-02-06T21:49:16.434Z,78.15
2018-02-06T21:51:44.010Z,78.00
2018-02-06T21:54:11.903Z,78.34
2018-02-06T21:56:39.470Z,79.29
2018-02-06T21:59:07.076Z,79.12
2018-02-06T22:01:34.686Z,78.89
2018-02-06T22:04:02.230Z,79.04
2018-02-06T22:06:29.786Z,79.54
2018-02-06T22:08:57.381Z,79.63
2018-02-06T22:11:24.931Z,79.52
2018-02-06T22:13:52.476Z,79.38
2018-02-06T22:16:20.393Z,79.25
2018-02-06T22:18:47.943Z,78.73
2018-02-06T22:21:15.501Z,79.20
2018-02-06T22:23:43.235Z,79.28
2018-02-06T22:26:10.797Z,78.92
2018-02-06T22:28:38.352Z,78.71
2018-02-06T22:31:06.100Z,78.29
2018-02-06T22:33:33.645Z,78.24
2018-02-06T22:36:01.204Z,78.66
2018-02-06T22:38:28.944Z,79.32
2018-02-06T22:40:56.506Z,79.83
2018-02-06T22:43:24.047Z,78.88
2018-02-06T22:45:51.642Z,79.18
2018-02-06T22:48:19.196Z,78.66
2018-02-06T22:50:46.755Z,78.00
2018-02-06T22:53:14.356Z,77.52
2018-02-06T22:55:41.898Z,78.85
2018-02-06T22:58:09.456Z,79.47
2018-02-06T23:00:37.266Z,79.95
2018-02-06T23:03:04.808Z,78.75
2018-02-06T23:05:32.356Z,79.68
2018-02-06T23:07:59.952Z,78.45
2018-02-06T23:10:27.499Z,77.10
2018-02-06T23:12:55.059Z,77.39
2018-02-06T23:15:22.676Z,77.93
2018-02-06T23:17:50.225Z,78.73
2018-02-06T23:20:17.786Z,78.26
2018-02-06T23:22:45.520Z,79.19
2018-02-06T23:25:13.074Z,79.54
2018-02-06T23:27:40.625Z,80.81
2018-02-06T23:30:08.231Z,79.99
2018-02-06T23:32:35.789Z,79.46
2018-02-06T23:35:03.341Z,80.23
2018-02-06T23:37:31.213Z,80.81
2018-02-06T23:39:58.767Z,81.31
2018-02-06T23:42:26.332Z,81.45
2018-02-06T23:44:54.078Z,81.85
2018-02-06T23:47:21.621Z,81.94
2018-02-06T23:49:49.167Z,82.42
2018-02-06T23:52:16.905Z,82.11
2018-02-06T23:54:44.470Z,82.12
2018-02-06T23:57:12.022Z,81.04
2018-02-06T23:59:40.962Z,80.26
